Apulia Station, NY

10:09 AM EST on March 01, 2015 (GMT -0500)
Apulia Station | Change Station
CLOSE
Current Station
Personal Weather Station
Location: Apulia Station, NY
Elevation: 1279 ft
Nearby Weather Stations

Elev 1279 ft 42.83 °N, 76.08 °W | Updated 4 minutes ago

Snow
Snow
24.6 °F
Feels Like 16 °F
N
7.6
Wind Variable Wind from South
Gusts 16.6 mph

Today
High -- | Low -- °F
--% Chance of Precip.
Yesterday
High -- | Low -- °F
Precip. -- in
6:40 AM 5:53 PM
Waxing Gibbous, 85% visible
Pressure 30.43 in
Visibility 1.5 miles
Clouds Scattered Clouds 1100 ft
Mostly Cloudy 1600 ft
Overcast 2800 ft
Windchill 16 °F
Dew Point 14 °F
Humidity 64%
Rainfall 0.00 in
Snow Depth Not available.
UV 1 out of 12
Pollen .40 out of 12
Air Quality Not available.
Flu Activity Not available.
METAR KN03 011455Z AUTO 16006KT 1 1/2SM -SN SCT011 BKN016 OVC028 M07/M09 A3043 RMK AO2

More Conditions Fewer Conditions

Pressure 30.43 in
Visibility 1.5 miles
Clouds Scattered Clouds 1100 ft
Mostly Cloudy 1600 ft
Overcast 2800 ft
Windchill 16 °F
Dew Point 14 °F
Humidity 64%
Rainfall 0.00 in
Snow Depth Not available.
UV 1 out of 12
Pollen .40 out of 12
Air Quality Not available.
Flu Activity Not available.
METAR KN03 011455Z AUTO 16006KT 1 1/2SM -SN SCT011 BKN016 OVC028 M07/M09 A3043 RMK AO2

More Conditions Fewer Conditions

10-Day Weather Forecast

Almanac

Astronomy

Mar. 01, 2015 Rise Set
Actual Time
Civil Twilight
Nautical Twilight
Astronomical Twilight
Moon
Length of Visible Light
Length of Day
Tomorrow will be .
, % of the Moon is Illuminated

Today's Extremes

State Highs State Lows

Community

WunderPhotos

Upload Photos

1,801,406 photos uploaded!

WunderBlogs® & News

Nearby

Air Quality

  Air Quality AQ Index Pollutant
Not available.

Snow Depth

Station Depth Elevation

Earthquake Activity

City Distance Mag. Time & Date
Minimum magnitude displayed is 2.5.

Coastal Water Temperatures

Place Temperature

Nearby Weather Stations